BYU2
, Provo
Last Weather Update:11/25/2011 7:00:00 AM
Date
ETo
ETc
Rain
Irrigation
Req
Temp
Max
Temp
Min
Temp
Avg
Avg RH
Avg Wind
Avg Solar
inches
inches
incehs
inches
F
F
F
%
%
watts/m2
10/1/2011 0.14" 0.08" 0.00" 0.08" 83.0° 55.9° 68.7° 44.0% 2.2 MPH 202.7w/m2
10/2/2011 0.13" 0.07" 0.00" 0.07" 82.2° 55.1° 67.6° 48.2% 1.9 MPH 195.2w/m2
10/3/2011 0.13" 0.07" 0.08" -0.01" 80.2° 55.1° 66.3° 53.6% 2.0 MPH 175.1w/m2
10/4/2011 0.12" 0.06" 0.02" 0.04" 76.0° 57.0° 65.0° 60.8% 2.7 MPH 190.7w/m2
10/5/2011 0.03" 0.02" 0.49" -0.47" 61.0° 45.2° 54.7° 76.6% 2.5 MPH 40.3w/m2
10/6/2011 0.03" 0.01" 0.64" -0.63" 45.5° 34.8° 40.1° 90.0% 3.0 MPH 66.0w/m2
10/7/2011 0.03" 0.01" 0.07" -0.06" 45.1° 35.9° 41.1° 80.0% 1.5 MPH 48.1w/m2
10/8/2011 0.04" 0.02" 0.06" -0.04" 52.6° 38.8° 44.3° 85.7% 1.4 MPH 76.3w/m2
10/9/2011 0.09" 0.04" 0.00" 0.04" 61.3° 36.0° 46.9° 75.3% 0.7 MPH 205.9w/m2
10/10/2011 0.07" 0.03" 0.01" 0.02" 63.3° 38.2° 50.3° 68.0% 1.2 MPH 133.2w/m2
10/11/2011 0.07" 0.03" 0.00" 0.03" 68.6° 48.9° 55.6° 72.0% 0.5 MPH 122.0w/m2
10/12/2011 0.09" 0.03" 0.00" 0.03" 65.8° 41.3° 52.4° 69.6% 0.6 MPH 187.4w/m2
10/13/2011 0.10" 0.03" 0.00" 0.03" 75.6° 39.9° 54.7° 58.8% 0.5 MPH 188.2w/m2
10/14/2011 0.10" 0.03" 0.00" 0.03" 78.0° 43.7° 58.0° 57.8% 0.6 MPH 190.8w/m2
10/15/2011 0.09" 0.03" 0.00" 0.03" 83.1° 47.8° 62.0° 53.2% 0.9 MPH 160.2w/m2
10/16/2011 0.08" 0.02" 0.00" 0.02" 75.4° 47.9° 61.4° 51.9% 1.3 MPH 127.2w/m2
10/17/2011 0.09" 0.02" 0.08" -0.06" 61.3° 43.9° 53.2° 64.1% 2.6 MPH 170.4w/m2
10/18/2011 0.08" 0.02" 0.00" 0.02" 62.9° 36.6° 48.1° 64.4% 0.9 MPH 184.8w/m2
10/19/2011 0.09" 0.02" 0.00" 0.02" 71.9° 37.5° 52.1° 60.4% 0.9 MPH 183.4w/m2
10/20/2011 0.09" 0.02" 0.00" 0.02" 69.7° 40.5° 53.5° 61.1% 0.7 MPH 175.8w/m2
10/21/2011 0.09" 0.02" 0.00" 0.02" 71.4° 41.6° 55.0° 57.5% 0.9 MPH 171.9w/m2
10/22/2011 0.08" 0.01" 0.00" 0.01" 67.8° 40.7° 52.7° 59.8% 1.2 MPH 168.1w/m2
10/23/2011 0.08" 0.01" 0.00" 0.01" 70.5° 38.6° 52.2° 62.4% 0.8 MPH 172.1w/m2
10/24/2011 0.10" 0.01" 0.00" 0.01" 74.3° 41.2° 56.5° 50.6% 2.2 MPH 150.3w/m2
10/25/2011 0.06" 0.01" 0.00" 0.01" 57.3° 43.7° 50.3° 63.8% 3.1 MPH 108.8w/m2
10/26/2011 0.07" 0.01" 0.00" 0.01" 49.5° 35.3° 42.1° 59.6% 3.1 MPH 147.9w/m2
10/27/2011 0.06" 0.00" 0.00" 0.00" 50.5° 29.1° 38.2° 55.1% 1.4 MPH 155.0w/m2
10/28/2011 0.06" 0.00" 0.00" 0.00" 55.5° 27.9° 39.3° 54.2% 1.1 MPH 147.2w/m2
10/29/2011 0.06" 0.00" 0.00" 0.00" 58.9° 29.5° 43.0° 49.6% 1.2 MPH 124.7w/m2
10/30/2011 0.07" 0.00" 0.00" 0.00" 63.9° 33.4° 46.1° 61.8% 0.9 MPH 158.2w/m2
10/31/2011 0.07" 0.00" 0.00" 0.00" 68.1° 35.2° 49.5° 59.1% 0.8 MPH 154.4w/m2
Totals: 2.48" 0.76" 1.45" -0.69" 83.1° 27.9° 52.3° 62.2% 1.5 MPH 151.0w/m2